Clovis, CA (93611)

2:13 PM PST on December 27, 2014 (GMT -0800)
APRSWXNET Clovis CA US | Change Station
CLOSE
Current Station
Personal Weather Station
Location: Clovis, CA
Elevation: 416 ft
Nearby Weather Stations

Elev 416 ft 36.85 °N, 119.63 °W | Updated 50 minutes ago

Mostly Cloudy
Mostly Cloudy
53 °F
Feels Like 53 °F
N
0
Wind Variable Wind from SSE
Gusts 4.0 mph

Today
High -- | Low -- °F
--% Chance of Precip.
Yesterday
High -- | Low -- °F
Precip. -- in
7:10 AM 4:49 PM
Waxing Crescent, 40% visible
Pressure 30.35 in
Visibility 10.0 miles
Clouds Mostly Cloudy 20000 ft
Dew Point 35 °F
Humidity 51%
Rainfall 0.00 in
Snow Depth Not available.
UV 1 out of 12
Pollen .90 out of 12
Air Quality Not available.
Flu Activity Not available.
METAR KFAT 272153Z 00000KT 10SM BKN200 13/01 A3035 RMK AO2 SLP277 T01280011

More Conditions Fewer Conditions

Pressure 30.35 in
Visibility 10.0 miles
Clouds Mostly Cloudy 20000 ft
Dew Point 35 °F
Humidity 51%
Rainfall 0.00 in
Snow Depth Not available.
UV 1 out of 12
Pollen .90 out of 12
Air Quality Not available.
Flu Activity Not available.
METAR KFAT 272153Z 00000KT 10SM BKN200 13/01 A3035 RMK AO2 SLP277 T01280011

More Conditions Fewer Conditions

10-Day Weather Forecast

Almanac

Astronomy

Dec. 27, 2014 Rise Set
Actual Time
Civil Twilight
Nautical Twilight
Astronomical Twilight
Moon
Length of Visible Light
Length of Day
Tomorrow will be .
, % of the Moon is Illuminated

Today's Extremes

State Highs State Lows

Community

WunderPhotos

Upload Photos

1,781,090 photos uploaded!

WunderBlogs® & News

Nearby

Air Quality

  Air Quality AQ Index Pollutant
Not available.

Snow Depth

Station Depth Elevation

Earthquake Activity

City Distance Mag. Time & Date
Minimum magnitude displayed is 2.5.

Coastal Water Temperatures

Place Temperature

Nearby Weather Stations